sensor_id;sensor_type;location;lat;lon;timestamp;pressure;altitude;pressure_sealevel;temperature;humidity
58879;BME280;44660;42.664;23.266;2023-04-15T00:00:08;93814.28;;;8.13;66.93
58879;BME280;44660;42.664;23.266;2023-04-15T00:02:34;93774.66;;;7.79;67.02
58879;BME280;44660;42.664;23.266;2023-04-15T00:05:00;93784.84;;;7.88;67.38
58879;BME280;44660;42.664;23.266;2023-04-15T00:07:25;93727.72;;;7.52;67.43
58879;BME280;44660;42.664;23.266;2023-04-15T00:09:51;93788.91;;;7.95;68.08
58879;BME280;44660;42.664;23.266;2023-04-15T00:12:19;93768.75;;;7.72;68.57
58879;BME280;44660;42.664;23.266;2023-04-15T00:14:46;93769.22;;;7.69;68.69
58879;BME280;44660;42.664;23.266;2023-04-15T00:17:11;93775.97;;;7.60;69.13
58879;BME280;44660;42.664;23.266;2023-04-15T00:19:37;93798.19;;;7.59;69.94
58879;BME280;44660;42.664;23.266;2023-04-15T00:22:03;93746.25;;;7.18;70.78
58879;BME280;44660;42.664;23.266;2023-04-15T00:24:28;93788.97;;;7.61;70.65
58879;BME280;44660;42.664;23.266;2023-04-15T00:26:55;93809.13;;;7.84;70.05
58879;BME280;44660;42.664;23.266;2023-04-15T00:29:21;93743.25;;;7.49;69.77
58879;BME280;44660;42.664;23.266;2023-04-15T00:31:46;93794.59;;;7.87;69.54
58879;BME280;44660;42.664;23.266;2023-04-15T00:34:12;93757.41;;;7.77;69.49
58879;BME280;44660;42.664;23.266;2023-04-15T00:36:38;93770.13;;;7.97;69.72
58879;BME280;44660;42.664;23.266;2023-04-15T00:39:03;93718.22;;;7.74;69.95
58879;BME280;44660;42.664;23.266;2023-04-15T00:41:29;93753.25;;;8.03;69.60
58879;BME280;44660;42.664;23.266;2023-04-15T00:43:55;93733.25;;;7.90;69.42
58879;BME280;44660;42.664;23.266;2023-04-15T00:46:21;93796.00;;;8.34;69.87
58879;BME280;44660;42.664;23.266;2023-04-15T00:48:47;93761.25;;;8.08;69.87
58879;BME280;44660;42.664;23.266;2023-04-15T00:51:13;93734.03;;;7.91;69.81
58879;BME280;44660;42.664;23.266;2023-04-15T00:53:39;93769.84;;;8.15;69.68
58879;BME280;44660;42.664;23.266;2023-04-15T00:56:05;93761.47;;;8.01;69.70
58879;BME280;44660;42.664;23.266;2023-04-15T00:58:31;93772.22;;;7.95;69.84
58879;BME280;44660;42.664;23.266;2023-04-15T01:00:56;93797.94;;;8.16;70.53
58879;BME280;44660;42.664;23.266;2023-04-15T01:03:23;93796.19;;;8.05;69.92
58879;BME280;44660;42.664;23.266;2023-04-15T01:05:49;93774.97;;;7.83;69.58
58879;BME280;44660;42.664;23.266;2023-04-15T01:08:14;93775.41;;;7.75;69.95
58879;BME280;44660;42.664;23.266;2023-04-15T01:10:40;93804.97;;;7.89;70.38
58879;BME280;44660;42.664;23.266;2023-04-15T01:13:06;93799.34;;;7.85;70.45
58879;BME280;44660;42.664;23.266;2023-04-15T01:15:32;93791.59;;;7.78;69.27
58879;BME280;44660;42.664;23.266;2023-04-15T01:17:58;93827.41;;;8.03;69.65
58879;BME280;44660;42.664;23.266;2023-04-15T01:20:23;93820.16;;;7.98;69.47
58879;BME280;44660;42.664;23.266;2023-04-15T01:22:49;93784.94;;;7.76;69.38
58879;BME280;44660;42.664;23.266;2023-04-15T01:25:19;93736.53;;;7.41;68.90
58879;BME280;44660;42.664;23.266;2023-04-15T01:27:47;93755.94;;;7.47;69.25
58879;BME280;44660;42.664;23.266;2023-04-15T01:30:12;93808.84;;;7.64;69.55
58879;BME280;44660;42.664;23.266;2023-04-15T01:32:38;93718.06;;;7.24;69.00
58879;BME280;44660;42.664;23.266;2023-04-15T01:35:03;93789.28;;;7.65;68.62
58879;BME280;44660;42.664;23.266;2023-04-15T01:37:29;93781.13;;;7.49;68.82
58879;BME280;44660;42.664;23.266;2023-04-15T01:39:55;93782.81;;;7.56;68.60
58879;BME280;44660;42.664;23.266;2023-04-15T01:42:22;93805.63;;;7.45;68.57
58879;BME280;44660;42.664;23.266;2023-04-15T01:44:47;93804.50;;;7.58;68.29
58879;BME280;44660;42.664;23.266;2023-04-15T01:47:13;93774.78;;;7.50;68.63
58879;BME280;44660;42.664;23.266;2023-04-15T01:49:38;93802.59;;;7.70;69.09
58879;BME280;44660;42.664;23.266;2023-04-15T01:52:04;93780.31;;;7.49;69.12
58879;BME280;44660;42.664;23.266;2023-04-15T01:54:29;93819.41;;;7.64;69.27
58879;BME280;44660;42.664;23.266;2023-04-15T01:56:55;93786.81;;;7.41;69.33
58879;BME280;44660;42.664;23.266;2023-04-15T01:59:21;93797.16;;;7.43;68.87
58879;BME280;44660;42.664;23.266;2023-04-15T02:01:46;93812.28;;;7.47;68.53
58879;BME280;44660;42.664;23.266;2023-04-15T02:04:12;93805.81;;;7.38;68.62
58879;BME280;44660;42.664;23.266;2023-04-15T02:06:42;93836.09;;;7.47;69.34
58879;BME280;44660;42.664;23.266;2023-04-15T02:09:08;93794.75;;;7.24;69.70
58879;BME280;44660;42.664;23.266;2023-04-15T02:11:34;93821.84;;;7.48;69.88
58879;BME280;44660;42.664;23.266;2023-04-15T02:14:00;93777.91;;;7.13;69.71
58879;BME280;44660;42.664;23.266;2023-04-15T02:16:25;93816.47;;;7.26;70.08
58879;BME280;44660;42.664;23.266;2023-04-15T02:18:51;93787.34;;;6.92;70.69
58879;BME280;44660;42.664;23.266;2023-04-15T02:21:17;93793.91;;;6.90;70.56
58879;BME280;44660;42.664;23.266;2023-04-15T02:23:43;93796.75;;;6.88;70.33
58879;BME280;44660;42.664;23.266;2023-04-15T02:26:08;93775.00;;;6.81;70.81
58879;BME280;44660;42.664;23.266;2023-04-15T02:28:34;93801.22;;;7.16;70.70
58879;BME280;44660;42.664;23.266;2023-04-15T02:31:03;93795.03;;;6.94;70.54
58879;BME280;44660;42.664;23.266;2023-04-15T02:33:30;93772.75;;;6.90;70.45
58879;BME280;44660;42.664;23.266;2023-04-15T02:35:56;93813.97;;;7.19;70.71
58879;BME280;44660;42.664;23.266;2023-04-15T02:38:22;93765.88;;;6.89;70.54
58879;BME280;44660;42.664;23.266;2023-04-15T02:40:47;93827.66;;;7.16;70.88
58879;BME280;44660;42.664;23.266;2023-04-15T02:43:14;93822.63;;;7.15;70.62
58879;BME280;44660;42.664;23.266;2023-04-15T02:45:41;93801.44;;;6.98;70.41
58879;BME280;44660;42.664;23.266;2023-04-15T02:48:08;93809.69;;;6.84;70.48
58879;BME280;44660;42.664;23.266;2023-04-15T02:50:33;93780.22;;;6.64;70.88
58879;BME280;44660;42.664;23.266;2023-04-15T02:52:59;93687.00;;;5.94;70.78
58879;BME280;44660;42.664;23.266;2023-04-15T02:55:25;93804.09;;;6.69;70.69
58879;BME280;44660;42.664;23.266;2023-04-15T02:57:51;93812.34;;;6.73;70.62
58879;BME280;44660;42.664;23.266;2023-04-15T03:00:16;93806.34;;;6.60;71.06
58879;BME280;44660;42.664;23.266;2023-04-15T03:02:44;93817.41;;;6.33;71.77
58879;BME280;44660;42.664;23.266;2023-04-15T03:05:12;93837.34;;;6.53;72.33
58879;BME280;44660;42.664;23.266;2023-04-15T03:07:38;93828.94;;;6.68;72.46
58879;BME280;44660;42.664;23.266;2023-04-15T03:10:05;93745.19;;;5.99;72.47
58879;BME280;44660;42.664;23.266;2023-04-15T03:12:30;93811.16;;;5.99;73.05
58879;BME280;44660;42.664;23.266;2023-04-15T03:14:55;93847.03;;;6.35;72.73
58879;BME280;44660;42.664;23.266;2023-04-15T03:17:21;93837.69;;;6.16;72.89
58879;BME280;44660;42.664;23.266;2023-04-15T03:19:47;93835.69;;;6.35;72.35
58879;BME280;44660;42.664;23.266;2023-04-15T03:22:12;93846.09;;;6.42;72.59
58879;BME280;44660;42.664;23.266;2023-04-15T03:24:38;93843.13;;;6.38;72.60
58879;BME280;44660;42.664;23.266;2023-04-15T03:27:03;93847.59;;;6.49;72.19
58879;BME280;44660;42.664;23.266;2023-04-15T03:29:30;93827.66;;;6.30;72.24
58879;BME280;44660;42.664;23.266;2023-04-15T03:31:56;93858.38;;;6.48;72.33
58879;BME280;44660;42.664;23.266;2023-04-15T03:34:21;93828.69;;;6.29;72.47
58879;BME280;44660;42.664;23.266;2023-04-15T03:36:47;93827.97;;;6.33;72.40
58879;BME280;44660;42.664;23.266;2023-04-15T03:39:12;93850.56;;;6.41;72.71
58879;BME280;44660;42.664;23.266;2023-04-15T03:41:38;93830.84;;;6.32;72.80
58879;BME280;44660;42.664;23.266;2023-04-15T03:44:04;93842.09;;;6.39;72.66
58879;BME280;44660;42.664;23.266;2023-04-15T03:46:29;93878.78;;;6.52;72.53
58879;BME280;44660;42.664;23.266;2023-04-15T03:48:55;93809.31;;;5.87;72.67
58879;BME280;44660;42.664;23.266;2023-04-15T03:51:20;93866.81;;;6.09;72.47
58879;BME280;44660;42.664;23.266;2023-04-15T03:53:46;93818.72;;;5.83;72.29
58879;BME280;44660;42.664;23.266;2023-04-15T03:56:11;93899.97;;;6.41;72.37
58879;BME280;44660;42.664;23.266;2023-04-15T03:58:37;93895.13;;;6.49;71.66
58879;BME280;44660;42.664;23.266;2023-04-15T04:01:02;93862.19;;;6.28;71.93
58879;BME280;44660;42.664;23.266;2023-04-15T04:03:28;93898.81;;;6.36;72.02
58879;BME280;44660;42.664;23.266;2023-04-15T04:05:53;93896.19;;;6.13;72.73
58879;BME280;44660;42.664;23.266;2023-04-15T04:08:19;93871.19;;;6.03;72.62
58879;BME280;44660;42.664;23.266;2023-04-15T04:10:46;93909.72;;;6.28;71.99
58879;BME280;44660;42.664;23.266;2023-04-15T04:13:11;93852.81;;;5.73;71.97
58879;BME280;44660;42.664;23.266;2023-04-15T04:15:37;93890.44;;;5.92;72.49
58879;BME280;44660;42.664;23.266;2023-04-15T04:18:02;93879.31;;;5.78;72.24
58879;BME280;44660;42.664;23.266;2023-04-15T04:20:28;93883.88;;;5.59;73.01
58879;BME280;44660;42.664;23.266;2023-04-15T04:22:56;93878.94;;;5.75;72.55
58879;BME280;44660;42.664;23.266;2023-04-15T04:25:21;93865.53;;;5.76;71.60
58879;BME280;44660;42.664;23.266;2023-04-15T04:27:47;93884.72;;;6.07;70.91
58879;BME280;44660;42.664;23.266;2023-04-15T04:30:12;93872.09;;;6.09;70.70
58879;BME280;44660;42.664;23.266;2023-04-15T04:32:38;93833.19;;;5.93;71.03
58879;BME280;44660;42.664;23.266;2023-04-15T04:35:03;93875.63;;;6.27;70.79
58879;BME280;44660;42.664;23.266;2023-04-15T04:37:29;93877.47;;;6.38;70.83
58879;BME280;44660;42.664;23.266;2023-04-15T04:39:54;93871.94;;;6.40;70.88
58879;BME280;44660;42.664;23.266;2023-04-15T04:42:20;93907.28;;;6.62;71.10
58879;BME280;44660;42.664;23.266;2023-04-15T04:44:46;93903.34;;;6.65;71.01
58879;BME280;44660;42.664;23.266;2023-04-15T04:47:11;93871.69;;;6.41;71.14
58879;BME280;44660;42.664;23.266;2023-04-15T04:49:38;93906.34;;;6.68;71.20
58879;BME280;44660;42.664;23.266;2023-04-15T04:52:03;93908.97;;;6.68;71.17
58879;BME280;44660;42.664;23.266;2023-04-15T04:54:29;93906.56;;;6.67;71.31
58879;BME280;44660;42.664;23.266;2023-04-15T04:56:55;93896.47;;;6.64;71.41
58879;BME280;44660;42.664;23.266;2023-04-15T04:59:22;93869.19;;;6.46;71.67
58879;BME280;44660;42.664;23.266;2023-04-15T05:01:48;93910.78;;;6.80;71.49
58879;BME280;44660;42.664;23.266;2023-04-15T05:04:13;93890.38;;;6.63;71.53
58879;BME280;44660;42.664;23.266;2023-04-15T05:06:39;93902.28;;;6.78;71.36
58879;BME280;44660;42.664;23.266;2023-04-15T05:09:04;93941.63;;;7.03;70.90
58879;BME280;44660;42.664;23.266;2023-04-15T05:11:30;93944.75;;;7.00;70.06
58879;BME280;44660;42.664;23.266;2023-04-15T05:13:55;93928.34;;;6.86;69.30
58879;BME280;44660;42.664;23.266;2023-04-15T05:16:22;93931.69;;;6.93;68.99
58879;BME280;44660;42.664;23.266;2023-04-15T05:18:47;93950.13;;;7.05;69.02
58879;BME280;44660;42.664;23.266;2023-04-15T05:21:13;93963.22;;;7.12;68.07
58879;BME280;44660;42.664;23.266;2023-04-15T05:23:39;93928.22;;;6.93;67.37
58879;BME280;44660;42.664;23.266;2023-04-15T05:26:05;93962.72;;;7.27;66.70
58879;BME280;44660;42.664;23.266;2023-04-15T05:28:30;93953.75;;;7.28;66.34
58879;BME280;44660;42.664;23.266;2023-04-15T05:30:56;93948.34;;;7.23;66.28
58879;BME280;44660;42.664;23.266;2023-04-15T05:33:21;93955.47;;;7.22;65.94
58879;BME280;44660;42.664;23.266;2023-04-15T05:35:47;93960.50;;;7.24;65.49
58879;BME280;44660;42.664;23.266;2023-04-15T05:38:13;93945.41;;;7.36;65.26
58879;BME280;44660;42.664;23.266;2023-04-15T05:40:38;93936.09;;;7.33;64.87
58879;BME280;44660;42.664;23.266;2023-04-15T05:43:03;93923.63;;;7.29;64.39
58879;BME280;44660;42.664;23.266;2023-04-15T05:45:29;93887.44;;;7.17;64.39
58879;BME280;44660;42.664;23.266;2023-04-15T05:47:54;93946.34;;;7.59;64.20
58879;BME280;44660;42.664;23.266;2023-04-15T05:50:22;93945.88;;;7.62;64.13
58879;BME280;44660;42.664;23.266;2023-04-15T05:52:48;93916.56;;;7.51;64.09
58879;BME280;44660;42.664;23.266;2023-04-15T05:55:13;93954.94;;;7.83;64.21
58879;BME280;44660;42.664;23.266;2023-04-15T05:57:39;93915.78;;;7.68;63.95
58879;BME280;44660;42.664;23.266;2023-04-15T06:00:05;93944.84;;;7.97;63.96
58879;BME280;44660;42.664;23.266;2023-04-15T06:02:30;93955.53;;;8.19;63.57
58879;BME280;44660;42.664;23.266;2023-04-15T06:04:57;93965.94;;;8.26;63.76
58879;BME280;44660;42.664;23.266;2023-04-15T06:07:22;93949.34;;;8.13;63.77
58879;BME280;44660;42.664;23.266;2023-04-15T06:09:48;93868.97;;;7.68;63.06
58879;BME280;44660;42.664;23.266;2023-04-15T06:12:17;93941.47;;;8.36;63.04
58879;BME280;44660;42.664;23.266;2023-04-15T06:14:43;93960.56;;;8.55;62.74
58879;BME280;44660;42.664;23.266;2023-04-15T06:17:08;93949.34;;;8.47;62.71
58879;BME280;44660;42.664;23.266;2023-04-15T06:19:34;93971.25;;;8.60;62.21
58879;BME280;44660;42.664;23.266;2023-04-15T06:22:01;93978.34;;;8.76;61.45
58879;BME280;44660;42.664;23.266;2023-04-15T06:24:27;93980.09;;;8.88;61.05
58879;BME280;44660;42.664;23.266;2023-04-15T06:26:53;93963.06;;;8.83;60.14
58879;BME280;44660;42.664;23.266;2023-04-15T06:29:18;93984.56;;;9.04;59.98
58879;BME280;44660;42.664;23.266;2023-04-15T06:31:46;93968.53;;;8.94;58.80
58879;BME280;44660;42.664;23.266;2023-04-15T06:34:11;93993.31;;;9.27;58.92
58879;BME280;44660;42.664;23.266;2023-04-15T06:36:37;93992.88;;;9.35;57.91
58879;BME280;44660;42.664;23.266;2023-04-15T06:39:02;93998.06;;;9.74;57.54
58879;BME280;44660;42.664;23.266;2023-04-15T06:41:28;93982.97;;;10.40;55.61
58879;BME280;44660;42.664;23.266;2023-04-15T06:43:53;93999.63;;;10.68;54.80
58879;BME280;44660;42.664;23.266;2023-04-15T06:46:19;94003.09;;;10.68;54.25
58879;BME280;44660;42.664;23.266;2023-04-15T06:48:44;93981.28;;;10.66;53.67
58879;BME280;44660;42.664;23.266;2023-04-15T06:51:10;93951.38;;;10.49;54.62
58879;BME280;44660;42.664;23.266;2023-04-15T06:53:38;93995.22;;;10.84;54.18
58879;BME280;44660;42.664;23.266;2023-04-15T06:56:07;93993.81;;;11.24;53.90
58879;BME280;44660;42.664;23.266;2023-04-15T06:58:33;93987.97;;;11.27;53.06
58879;BME280;44660;42.664;23.266;2023-04-15T07:00:59;93970.72;;;11.45;52.17
58879;BME280;44660;42.664;23.266;2023-04-15T07:03:25;93994.25;;;11.74;51.29
58879;BME280;44660;42.664;23.266;2023-04-15T07:05:51;94003.13;;;12.11;50.99
58879;BME280;44660;42.664;23.266;2023-04-15T07:08:19;93993.53;;;12.66;51.19
58879;BME280;44660;42.664;23.266;2023-04-15T07:10:45;93993.94;;;13.15;48.37
58879;BME280;44660;42.664;23.266;2023-04-15T07:13:11;93997.66;;;13.90;47.27
58879;BME280;44660;42.664;23.266;2023-04-15T07:15:37;93962.84;;;16.23;42.14
58879;BME280;44660;42.664;23.266;2023-04-15T07:18:02;93971.84;;;19.76;35.71
58879;BME280;44660;42.664;23.266;2023-04-15T07:20:28;93969.84;;;22.15;30.10
58879;BME280;44660;42.664;23.266;2023-04-15T07:22:53;93956.91;;;23.09;27.09
58879;BME280;44660;42.664;23.266;2023-04-15T07:25:19;93924.53;;;24.56;24.31
58879;BME280;44660;42.664;23.266;2023-04-15T07:27:44;93913.34;;;25.18;24.63
58879;BME280;44660;42.664;23.266;2023-04-15T07:30:10;93944.78;;;26.15;23.89
58879;BME280;44660;42.664;23.266;2023-04-15T07:32:37;93922.56;;;26.52;22.84
58879;BME280;44660;42.664;23.266;2023-04-15T07:35:02;93954.75;;;28.59;21.13
58879;BME280;44660;42.664;23.266;2023-04-15T07:37:28;93950.91;;;29.36;20.95
58879;BME280;44660;42.664;23.266;2023-04-15T07:39:54;93959.28;;;30.76;18.96
58879;BME280;44660;42.664;23.266;2023-04-15T07:42:20;93936.59;;;30.05;19.46
58879;BME280;44660;42.664;23.266;2023-04-15T07:44:46;93950.22;;;30.54;19.28
58879;BME280;44660;42.664;23.266;2023-04-15T07:47:12;93933.84;;;30.86;18.18
58879;BME280;44660;42.664;23.266;2023-04-15T07:49:37;93955.56;;;31.27;18.26
58879;BME280;44660;42.664;23.266;2023-04-15T07:52:03;93963.97;;;29.98;18.12
58879;BME280;44660;42.664;23.266;2023-04-15T07:54:28;93901.88;;;29.64;19.00
58879;BME280;44660;42.664;23.266;2023-04-15T07:56:54;93963.44;;;29.85;18.54
58879;BME280;44660;42.664;23.266;2023-04-15T07:59:20;93977.25;;;29.13;18.91
58879;BME280;44660;42.664;23.266;2023-04-15T08:01:46;93986.44;;;28.33;19.77
58879;BME280;44660;42.664;23.266;2023-04-15T08:04:12;93988.88;;;28.12;22.63
58879;BME280;44660;42.664;23.266;2023-04-15T08:06:37;93960.47;;;27.66;22.30
58879;BME280;44660;42.664;23.266;2023-04-15T08:09:04;93968.19;;;27.61;22.81
58879;BME280;44660;42.664;23.266;2023-04-15T08:11:30;93957.16;;;27.53;22.39
58879;BME280;44660;42.664;23.266;2023-04-15T08:13:56;93960.78;;;27.61;21.18
58879;BME280;44660;42.664;23.266;2023-04-15T08:16:23;93977.53;;;27.17;21.69
58879;BME280;44660;42.664;23.266;2023-04-15T08:18:50;93947.47;;;26.90;22.20
58879;BME280;44660;42.664;23.266;2023-04-15T08:21:17;93983.06;;;27.20;23.17
58879;BME280;44660;42.664;23.266;2023-04-15T08:23:44;93979.63;;;27.24;21.72
58879;BME280;44660;42.664;23.266;2023-04-15T08:26:10;93985.19;;;26.68;22.63
58879;BME280;44660;42.664;23.266;2023-04-15T08:28:38;93985.00;;;26.22;24.34
58879;BME280;44660;42.664;23.266;2023-04-15T08:31:03;93980.47;;;26.65;22.37
58879;BME280;44660;42.664;23.266;2023-04-15T08:33:29;93976.22;;;26.48;22.76
58879;BME280;44660;42.664;23.266;2023-04-15T08:35:54;93929.25;;;25.64;22.46
58879;BME280;44660;42.664;23.266;2023-04-15T08:38:20;93964.63;;;24.88;25.25
58879;BME280;44660;42.664;23.266;2023-04-15T08:40:45;93933.81;;;25.28;24.93
58879;BME280;44660;42.664;23.266;2023-04-15T08:43:22;93946.22;;;24.97;24.76
58879;BME280;44660;42.664;23.266;2023-04-15T08:45:53;93963.72;;;25.28;23.17
58879;BME280;44660;42.664;23.266;2023-04-15T08:48:19;93955.81;;;25.23;23.25
58879;BME280;44660;42.664;23.266;2023-04-15T08:50:46;93960.16;;;23.61;23.02
58879;BME280;44660;42.664;23.266;2023-04-15T08:53:12;93937.09;;;23.55;22.52
58879;BME280;44660;42.664;23.266;2023-04-15T08:55:42;93944.44;;;22.83;23.75
58879;BME280;44660;42.664;23.266;2023-04-15T08:58:09;93929.84;;;22.42;24.84
58879;BME280;44660;42.664;23.266;2023-04-15T09:00:35;93944.38;;;22.16;24.37
58879;BME280;44660;42.664;23.266;2023-04-15T09:03:03;93958.63;;;22.26;25.13
58879;BME280;44660;42.664;23.266;2023-04-15T09:05:31;93954.41;;;22.37;26.32
58879;BME280;44660;42.664;23.266;2023-04-15T09:07:57;93953.72;;;22.95;25.33
58879;BME280;44660;42.664;23.266;2023-04-15T09:10:23;93934.59;;;23.37;23.83
58879;BME280;44660;42.664;23.266;2023-04-15T09:12:48;93953.25;;;23.63;23.96
58879;BME280;44660;42.664;23.266;2023-04-15T09:15:14;93943.06;;;23.36;23.67
58879;BME280;44660;42.664;23.266;2023-04-15T09:17:44;93940.59;;;23.43;19.64
58879;BME280;44660;42.664;23.266;2023-04-15T09:20:14;93940.72;;;22.55;21.18
58879;BME280;44660;42.664;23.266;2023-04-15T09:22:40;93925.84;;;22.61;20.35
58879;BME280;44660;42.664;23.266;2023-04-15T09:27:48;93934.19;;;22.56;20.92
58879;BME280;44660;42.664;23.266;2023-04-15T09:30:14;93940.13;;;22.28;21.01
58879;BME280;44660;42.664;23.266;2023-04-15T09:32:55;93932.75;;;21.95;20.83
58879;BME280;44660;42.664;23.266;2023-04-15T09:35:23;93941.78;;;21.39;21.27
58879;BME280;44660;42.664;23.266;2023-04-15T09:37:49;93934.53;;;21.31;20.75
58879;BME280;44660;42.664;23.266;2023-04-15T09:40:36;93921.19;;;21.26;22.81
58879;BME280;44660;42.664;23.266;2023-04-15T09:43:03;93926.59;;;21.64;22.84
58879;BME280;44660;42.664;23.266;2023-04-15T09:45:29;93869.31;;;20.46;21.29
58879;BME280;44660;42.664;23.266;2023-04-15T09:48:14;93912.84;;;19.92;22.51
58879;BME280;44660;42.664;23.266;2023-04-15T09:50:42;93910.97;;;20.19;22.29
58879;BME280;44660;42.664;23.266;2023-04-15T09:53:14;93940.84;;;19.47;22.77
58879;BME280;44660;42.664;23.266;2023-04-15T09:55:44;93958.63;;;19.57;22.37
58879;BME280;44660;42.664;23.266;2023-04-15T09:58:18;93936.13;;;19.13;22.05
58879;BME280;44660;42.664;23.266;2023-04-15T10:00:46;93934.03;;;19.58;23.47
58879;BME280;44660;42.664;23.266;2023-04-15T10:03:20;93931.22;;;19.72;22.47
58879;BME280;44660;42.664;23.266;2023-04-15T10:05:47;93944.06;;;19.67;22.70
58879;BME280;44660;42.664;23.266;2023-04-15T10:08:15;93908.06;;;19.05;23.04
58879;BME280;44660;42.664;23.266;2023-04-15T10:10:41;93931.47;;;19.45;23.04
58879;BME280;44660;42.664;23.266;2023-04-15T10:13:08;93890.66;;;18.48;24.65
58879;BME280;44660;42.664;23.266;2023-04-15T10:15:33;93920.22;;;18.71;25.46
58879;BME280;44660;42.664;23.266;2023-04-15T10:18:00;93929.50;;;18.87;25.36
58879;BME280;44660;42.664;23.266;2023-04-15T10:20:27;93932.81;;;18.84;26.06
58879;BME280;44660;42.664;23.266;2023-04-15T10:22:53;93940.28;;;18.87;25.44
58879;BME280;44660;42.664;23.266;2023-04-15T10:25:20;93927.91;;;19.18;24.93
58879;BME280;44660;42.664;23.266;2023-04-15T10:27:49;93919.78;;;19.09;24.70
58879;BME280;44660;42.664;23.266;2023-04-15T10:30:17;93930.81;;;18.67;24.61
58879;BME280;44660;42.664;23.266;2023-04-15T10:32:43;93921.38;;;19.10;24.87
58879;BME280;44660;42.664;23.266;2023-04-15T10:35:10;93914.84;;;19.60;24.46
58879;BME280;44660;42.664;23.266;2023-04-15T10:37:37;93904.09;;;19.69;25.65
58879;BME280;44660;42.664;23.266;2023-04-15T10:40:32;93903.66;;;19.93;24.41
58879;BME280;44660;42.664;23.266;2023-04-15T10:43:00;93882.03;;;19.75;25.85
58879;BME280;44660;42.664;23.266;2023-04-15T10:45:33;93847.81;;;19.85;25.75
58879;BME280;44660;42.664;23.266;2023-04-15T10:48:02;93908.56;;;20.17;25.38
58879;BME280;44660;42.664;23.266;2023-04-15T10:50:29;93878.09;;;19.99;25.05
58879;BME280;44660;42.664;23.266;2023-04-15T10:52:56;93896.66;;;20.01;25.32
58879;BME280;44660;42.664;23.266;2023-04-15T10:55:26;93895.72;;;20.14;25.12
58879;BME280;44660;42.664;23.266;2023-04-15T10:57:59;93899.84;;;19.94;25.28
58879;BME280;44660;42.664;23.266;2023-04-15T11:00:28;93893.19;;;19.92;29.98
58879;BME280;44660;42.664;23.266;2023-04-15T11:02:58;93855.22;;;19.44;27.52
58879;BME280;44660;42.664;23.266;2023-04-15T11:08:10;93874.94;;;19.04;27.54
58879;BME280;44660;42.664;23.266;2023-04-15T11:13:14;93866.66;;;18.92;28.41
58879;BME280;44660;42.664;23.266;2023-04-15T11:15:44;93904.94;;;19.20;29.82
58879;BME280;44660;42.664;23.266;2023-04-15T11:20:37;93902.25;;;18.89;28.92
58879;BME280;44660;42.664;23.266;2023-04-15T11:23:03;93811.97;;;18.42;27.54
58879;BME280;44660;42.664;23.266;2023-04-15T11:25:33;93867.03;;;19.17;27.25
58879;BME280;44660;42.664;23.266;2023-04-15T11:27:59;93908.44;;;19.30;26.95
58879;BME280;44660;42.664;23.266;2023-04-15T11:30:27;93861.84;;;19.20;26.82
58879;BME280;44660;42.664;23.266;2023-04-15T11:32:56;93895.09;;;18.75;27.62
58879;BME280;44660;42.664;23.266;2023-04-15T11:35:22;93844.50;;;18.64;26.85
58879;BME280;44660;42.664;23.266;2023-04-15T11:37:48;93915.06;;;19.23;26.90
58879;BME280;44660;42.664;23.266;2023-04-15T11:40:15;93862.13;;;19.10;27.48
58879;BME280;44660;42.664;23.266;2023-04-15T11:42:43;93904.88;;;19.52;26.63
58879;BME280;44660;42.664;23.266;2023-04-15T11:45:09;93903.91;;;18.99;26.93
58879;BME280;44660;42.664;23.266;2023-04-15T11:47:36;93876.38;;;18.79;26.94
58879;BME280;44660;42.664;23.266;2023-04-15T11:52:50;93897.50;;;19.17;27.50
58879;BME280;44660;42.664;23.266;2023-04-15T11:55:16;93888.13;;;19.23;26.86
58879;BME280;44660;42.664;23.266;2023-04-15T11:57:41;93892.78;;;19.40;27.17
58879;BME280;44660;42.664;23.266;2023-04-15T12:00:07;93897.91;;;19.68;26.94
58879;BME280;44660;42.664;23.266;2023-04-15T12:02:36;93879.63;;;19.39;26.72
58879;BME280;44660;42.664;23.266;2023-04-15T12:05:05;93885.28;;;19.11;27.08
58879;BME280;44660;42.664;23.266;2023-04-15T12:07:30;93906.69;;;19.16;27.51
58879;BME280;44660;42.664;23.266;2023-04-15T12:09:56;93895.81;;;19.39;26.31
58879;BME280;44660;42.664;23.266;2023-04-15T12:12:26;93877.25;;;19.46;24.78
58879;BME280;44660;42.664;23.266;2023-04-15T12:14:53;93855.13;;;19.09;25.64
58879;BME280;44660;42.664;23.266;2023-04-15T12:17:22;93847.22;;;18.72;25.21
58879;BME280;44660;42.664;23.266;2023-04-15T12:19:47;93897.56;;;18.95;25.35
58879;BME280;44660;42.664;23.266;2023-04-15T12:22:15;93904.06;;;18.71;26.23
58879;BME280;44660;42.664;23.266;2023-04-15T12:24:43;93867.19;;;18.40;25.97
58879;BME280;44660;42.664;23.266;2023-04-15T12:27:11;93893.03;;;18.81;25.76
58879;BME280;44660;42.664;23.266;2023-04-15T12:29:39;93890.03;;;18.83;26.36
58879;BME280;44660;42.664;23.266;2023-04-15T12:32:08;93896.53;;;18.82;27.30
58879;BME280;44660;42.664;23.266;2023-04-15T12:34:39;93858.34;;;18.80;25.74
58879;BME280;44660;42.664;23.266;2023-04-15T12:37:08;93888.69;;;18.94;26.17
58879;BME280;44660;42.664;23.266;2023-04-15T12:39:35;93878.13;;;18.75;26.64
58879;BME280;44660;42.664;23.266;2023-04-15T12:42:01;93906.03;;;19.19;26.93
58879;BME280;44660;42.664;23.266;2023-04-15T12:44:27;93889.34;;;19.00;26.28
58879;BME280;44660;42.664;23.266;2023-04-15T12:46:53;93914.13;;;19.19;26.17
58879;BME280;44660;42.664;23.266;2023-04-15T12:49:20;93909.09;;;19.27;26.48
58879;BME280;44660;42.664;23.266;2023-04-15T12:51:50;93911.28;;;19.24;25.65
58879;BME280;44660;42.664;23.266;2023-04-15T12:54:16;93898.28;;;18.86;25.31
58879;BME280;44660;42.664;23.266;2023-04-15T12:56:42;93881.91;;;18.74;25.75
58879;BME280;44660;42.664;23.266;2023-04-15T12:59:08;93898.69;;;18.71;25.39
58879;BME280;44660;42.664;23.266;2023-04-15T13:01:34;93907.22;;;18.96;25.05
58879;BME280;44660;42.664;23.266;2023-04-15T13:03:59;93867.66;;;18.73;25.41